Romulus, Alabama
Current Conditions -  °F | °C
As of 9:53 AM on Wednesday 26 Nov 2014 (Local Time) from KTCL Reporting Station
Clear Clear  
Wind Chill: 45°   Ceiling: Unl
Heat Index: 45°   Visibility: 10mi
Dew Point: 30°   Wind: 3mph
Humidity: 56%   Direction: 170°S
Pressure: 30.23"   Gusts: NA
Location:  33.2658°N, 87.7278°W
Report Text: KTCL 261553Z 17003KT 10SM CLR 07/M01 A3023 RMK AO2 SLP235 T00721011
Loading
Personal Weather Stations






























Interactive Weather Map New forecast layout! Learn more

10-Day Weather Forecast

Advertisements
Track Severe Weather on mobile